Time;durP1;ratioP1;P1;durP2;ratioP2;P2;SDS_P1;SDS_P2;PMS_P1;PMS_P2;Temp;Humidity;BMP_temperature;BMP_pressure;BME280_temperature;BME280_humidity;BME280_pressure;Samples;Min_cycle;Max_cycle;Signal;HPM_P1;HPM_P2
2023/01/29 00:00:10;;;;;;;23.02;20.50;;;0.30;93.50;;;-0.90;80.64;102187.53;5030527;28;20795;-69
2023/01/29 00:02:38;;;;;;;23.15;20.77;;;0.30;93.50;;;-0.88;81.22;102183.06;5030552;28;20484;-68
2023/01/29 00:05:08;;;;;;;23.67;21.17;;;0.30;93.60;;;-0.88;81.40;102183.94;5030907;28;20407;-69
2023/01/29 00:07:55;;;;;;;26.67;23.77;;;0.30;93.60;;;-0.87;80.53;102179.53;5030293;28;20414;-69
2023/01/29 00:10:24;;;;;;;32.60;28.00;;;0.30;93.60;;;-0.86;80.52;102179.50;5030587;28;20407;-69
2023/01/29 00:12:52;;;;;;;32.03;27.95;;;0.30;93.60;;;-0.86;81.40;102182.13;5030682;28;20490;-69
2023/01/29 00:15:21;;;;;;;40.17;31.15;;;0.30;93.60;;;-0.85;81.47;102186.47;5030491;28;20399;-68
2023/01/29 00:17:49;;;;;;;37.72;31.13;;;0.30;93.60;;;-0.84;81.57;102182.94;5030415;28;20433;-69
2023/01/29 00:20:17;;;;;;;29.02;24.70;;;0.30;93.70;;;-0.85;81.14;102177.69;5030019;28;20419;-69
2023/01/29 00:22:46;;;;;;;26.00;23.20;;;0.30;93.70;;;-0.88;81.25;102176.03;5029906;28;20421;-68
2023/01/29 00:25:16;;;;;;;25.73;23.02;;;0.30;93.80;;;-0.85;81.63;102175.94;5030601;28;20403;-68
2023/01/29 00:27:44;;;;;;;30.42;26.75;;;0.40;93.90;;;-0.82;81.37;102178.47;5030165;28;20418;-69
2023/01/29 00:30:17;;;;;;;24.27;21.45;;;0.40;93.80;;;-0.83;81.05;102178.53;5030052;28;20465;-69
2023/01/29 00:32:46;;;;;;;24.25;21.10;;;0.40;93.80;;;-0.83;82.06;102174.13;5030094;28;20875;-69
2023/01/29 00:35:14;;;;;;;23.77;21.25;;;0.40;93.80;;;-0.82;81.02;102175.84;5030138;28;20414;-69
2023/01/29 00:37:42;;;;;;;27.70;24.70;;;0.40;93.80;;;-0.82;82.17;102167.94;5029415;28;20413;-69
2023/01/29 00:40:12;;;;;;;26.40;23.17;;;0.40;93.90;;;-0.82;81.76;102165.31;5029750;28;20830;-69
2023/01/29 00:45:30;;;;;;;24.15;21.58;;;0.40;93.80;;;-0.79;80.79;102162.59;5029667;28;20403;-68
2023/01/29 00:47:58;;;;;;;25.80;23.02;;;0.40;93.80;;;-0.79;82.02;102164.38;5029957;28;20399;-68
2023/01/29 00:50:26;;;;;;;25.90;23.10;;;0.40;93.90;;;-0.77;81.45;102160.78;5029753;28;20415;-69
2023/01/29 00:52:54;;;;;;;27.80;22.40;;;0.40;93.90;;;-0.79;82.47;102165.22;5029399;28;20446;-68
2023/01/29 00:55:22;;;;;;;28.70;24.00;;;0.50;93.90;;;-0.79;81.80;102162.59;5029658;28;20414;-69
2023/01/29 00:57:52;;;;;;;31.73;24.83;;;0.40;94.10;;;-0.78;81.74;102161.66;5029289;28;20403;-69
2023/01/29 01:00:21;;;;;;;27.50;23.90;;;0.40;94.20;;;-0.77;81.41;102160.78;5029534;28;20407;-69
2023/01/29 01:03:06;;;;;;;25.45;22.67;;;0.40;94.20;;;-0.75;82.30;102169.44;5025758;28;20425;-68
2023/01/29 01:05:35;;;;;;;24.75;22.05;;;0.40;94.20;;;-0.75;81.80;102172.06;5009743;28;20408;-69
2023/01/29 01:10:19;;;;;;;24.08;21.48;;;0.40;94.20;;;-0.74;82.40;102167.69;5010059;28;20462;-68
2023/01/29 01:10:59;;;;;;;24.70;22.15;;;0.50;94.10;;;-0.74;81.84;102167.69;5009416;28;20897;-69
2023/01/29 01:13:29;;;;;;;24.38;21.50;;;0.50;94.20;;;-0.75;82.66;102161.56;5010178;28;20404;-69
2023/01/29 01:15:57;;;;;;;23.77;21.38;;;0.40;94.20;;;-0.74;81.49;102158.03;5009642;28;20404;-69
2023/01/29 01:18:29;;;;;;;24.00;21.48;;;0.40;94.10;;;-0.74;81.87;102158.03;5012934;28;20426;-69
2023/01/29 01:20:58;;;;;;;23.52;21.02;;;0.40;94.20;;;-0.73;82.51;102149.22;5029674;28;20391;-69
2023/01/29 01:23:26;;;;;;;23.40;20.88;;;0.50;94.20;;;-0.71;82.90;102152.66;5028905;28;20403;-69
2023/01/29 01:25:55;;;;;;;23.98;21.48;;;0.50;94.30;;;-0.72;82.35;102147.47;5029250;28;20406;-69
2023/01/29 01:28:23;;;;;;;24.00;21.40;;;0.40;94.40;;;-0.72;82.89;102135.16;5029440;28;20418;-68
2023/01/29 01:30:52;;;;;;;23.45;20.98;;;0.50;94.20;;;-0.73;81.41;102125.56;5028800;28;20741;-69
2023/01/29 01:33:20;;;;;;;24.20;21.70;;;0.50;94.20;;;-0.76;82.27;102112.53;5029033;28;20836;-69
2023/01/29 01:35:49;;;;;;;23.08;20.70;;;0.40;94.10;;;-0.76;82.47;102109.91;5028706;28;20415;-69
2023/01/29 01:38:17;;;;;;;23.08;20.77;;;0.40;94.10;;;-0.75;81.26;102114.22;5028755;28;20411;-68
2023/01/29 01:40:46;;;;;;;23.67;21.17;;;0.40;94.10;;;-0.75;81.87;102114.22;5028615;28;20913;-68
2023/01/29 01:43:14;;;;;;;23.70;21.17;;;0.40;94.10;;;-0.78;82.51;102109.09;5028835;28;20414;-68
2023/01/29 01:45:45;;;;;;;24.00;21.50;;;0.40;94.10;;;-0.78;82.04;102114.34;5028548;28;20891;-68
2023/01/29 01:48:21;;;;;;;24.17;21.50;;;0.40;94.10;;;-0.79;81.62;102107.38;5028604;28;20918;-68
2023/01/29 01:50:56;;;;;;;23.38;20.98;;;0.40;94.20;;;-0.78;82.45;102098.56;5028588;28;20791;-69
2023/01/29 01:53:33;;;;;;;24.63;21.92;;;0.40;94.10;;;-0.80;81.21;102099.53;5028992;28;20418;-69
2023/01/29 01:56:06;;;;;;;24.13;21.55;;;0.40;94.10;;;-0.82;82.19;102101.38;5028620;28;20409;-69
2023/01/29 01:58:39;;;;;;;25.10;22.40;;;0.40;94.00;;;-0.84;81.90;102104.06;5028729;28;20481;-69
2023/01/29 02:01:09;;;;;;;24.97;22.23;;;0.40;94.00;;;-0.85;81.16;102109.34;5028960;28;20430;-69
2023/01/29 02:09:35;;;;;;;25.13;22.42;;;0.30;94.20;;;-0.85;81.82;102123.34;5028632;28;20641;-68
2023/01/29 02:12:05;;;;;;;25.20;22.52;;;0.30;94.00;;;-0.83;82.29;102124.19;5028320;28;20794;-69
2023/01/29 02:14:37;;;;;;;24.08;21.45;;;0.30;93.90;;;-0.83;82.22;102126.81;5028637;28;20405;-68
2023/01/29 02:17:07;;;;;;;25.52;22.83;;;0.40;94.00;;;-0.82;81.68;102132.94;5028220;28;20417;-69
2023/01/29 02:19:50;;;;;;;25.58;22.88;;;0.30;93.80;;;-0.84;81.81;102127.72;5028135;28;20474;-68
2023/01/29 02:22:46;;;;;;;26.00;22.98;;;0.30;93.90;;;-0.83;81.58;102132.06;5027622;28;20946;-68
2023/01/29 02:25:50;;;;;;;24.77;22.17;;;0.40;94.00;;;-0.86;81.98;102147.97;5028438;28;20490;-69
2023/01/29 02:28:37;;;;;;;26.23;22.97;;;0.30;94.00;;;-0.85;81.32;102154.03;5027337;28;20456;-68
2023/01/29 02:31:17;;;;;;;27.02;23.95;;;0.30;93.90;;;-0.82;81.83;102153.97;5028241;28;20410;-69
2023/01/29 02:34:00;;;;;;;26.55;23.75;;;0.40;94.10;;;-0.83;81.82;102152.25;5028036;28;20486;-68
2023/01/29 02:36:40;;;;;;;27.55;24.65;;;0.40;94.40;;;-0.81;82.58;102160.91;5027593;28;20906;-68
2023/01/29 02:39:21;;;;;;;26.35;23.27;;;0.30;94.10;;;-0.81;82.36;102164.41;5027935;28;20430;-68
2023/01/29 02:42:00;;;;;;;26.52;23.75;;;0.30;94.20;;;-0.82;81.42;102160.06;5028086;28;20407;-68
2023/01/29 02:44:39;;;;;;;28.00;25.02;;;0.40;94.10;;;-0.87;82.00;102159.38;5027857;28;20461;-69
2023/01/29 02:47:17;;;;;;;27.23;24.38;;;0.30;93.90;;;-0.86;81.64;102161.09;5027973;28;20407;-69
2023/01/29 02:49:52;;;;;;;27.35;24.35;;;0.30;94.00;;;-0.84;81.15;102159.25;5027918;28;20402;-69
2023/01/29 02:52:34;;;;;;;30.30;25.08;;;0.30;94.10;;;-0.85;81.53;102152.28;5027772;28;20945;-69
2023/01/29 02:55:12;;;;;;;28.55;25.30;;;0.30;94.00;;;-0.85;81.27;102154.91;5027796;28;20482;-69
2023/01/29 02:57:46;;;;;;;27.77;24.77;;;0.30;94.10;;;-0.86;80.96;102158.47;5027294;28;20409;-69
2023/01/29 03:00:22;;;;;;;29.08;25.83;;;0.30;94.00;;;-0.87;81.48;102151.47;5027597;28;20791;-69
2023/01/29 03:02:58;;;;;;;27.73;24.33;;;0.30;93.90;;;-0.88;82.09;102144.50;5030534;28;20448;-68
2023/01/29 03:05:34;;;;;;;28.75;25.23;;;0.30;93.90;;;-0.89;81.85;102137.50;5031648;28;20405;-69
2023/01/29 03:08:11;;;;;;;28.58;24.98;;;0.30;94.00;;;-0.89;80.98;102132.25;5031772;28;20403;-69
2023/01/29 03:10:47;;;;;;;28.95;25.85;;;0.30;93.90;;;-0.90;81.60;102130.56;5031665;28;20403;-68
2023/01/29 03:13:23;;;;;;;30.02;25.27;;;0.30;94.00;;;-0.91;82.17;102128.84;5031700;28;20391;-69
2023/01/29 03:16:02;;;;;;;29.17;26.05;;;0.30;94.00;;;-0.90;81.64;102125.31;5030904;28;20460;-68
2023/01/29 03:18:40;;;;;;;29.20;26.02;;;0.30;94.00;;;-0.88;82.20;102118.22;5031437;28;20395;-68
2023/01/29 03:32:27;;;;;;;29.27;25.53;;;0.40;94.10;;;-0.77;81.97;102131.84;5031072;28;20407;-69
2023/01/29 03:35:03;;;;;;;28.25;24.90;;;0.40;94.10;;;-0.74;81.53;102125.59;5031245;28;20407;-68
2023/01/29 03:37:40;;;;;;;28.77;25.00;;;0.50;94.10;;;-0.72;81.19;102123.81;5030756;28;20821;-69
2023/01/29 03:40:10;;;;;;;28.95;25.20;;;0.50;94.10;;;-0.72;81.45;102124.63;5030803;28;20438;-69
2023/01/29 03:43:05;;;;;;;27.20;24.30;;;0.50;94.00;;;-0.71;81.66;102109.72;5029404;28;20414;-68
2023/01/29 03:45:43;;;;;;;28.03;25.03;;;0.50;94.00;;;-0.70;81.46;102112.31;5030754;28;20411;-68
2023/01/29 03:48:24;;;;;;;27.70;24.77;;;0.50;94.10;;;-0.69;81.57;102114.03;5030901;28;20501;-68
2023/01/29 03:51:01;;;;;;;27.33;24.42;;;0.50;94.10;;;-0.70;81.65;102111.44;5030750;28;20490;-68
2023/01/29 03:53:43;;;;;;;27.05;24.10;;;0.50;94.10;;;-0.69;81.68;102108.78;5031001;28;20403;-69
2023/01/29 03:56:29;;;;;;;28.23;25.23;;;0.50;94.20;;;-0.70;82.78;102107.03;5030593;28;20410;-68
2023/01/29 03:59:06;;;;;;;27.65;24.65;;;0.50;94.20;;;-0.71;81.34;102086.91;5030678;28;20394;-68
2023/01/29 04:01:47;;;;;;;28.08;25.02;;;0.50;94.10;;;-0.71;82.68;102088.69;5030708;28;20435;-68
2023/01/29 04:04:26;;;;;;;28.17;24.85;;;0.50;94.20;;;-0.70;82.24;102093.91;5030497;28;20407;-69
2023/01/29 04:07:03;;;;;;;27.70;24.65;;;0.50;94.20;;;-0.69;82.42;102093.00;5030378;28;20403;-68
2023/01/29 04:09:40;;;;;;;27.70;24.75;;;0.50;94.20;;;-0.68;82.13;102078.91;5030761;28;20430;-68
2023/01/29 04:12:12;;;;;;;28.30;24.95;;;0.50;94.20;;;-0.66;82.13;102081.50;5030656;28;20391;-69
2023/01/29 04:14:40;;;;;;;29.73;25.35;;;0.50;94.20;;;-0.65;82.11;102078.78;5029490;28;20399;-69
2023/01/29 04:17:15;;;;;;;27.17;24.25;;;0.50;94.20;;;-0.66;82.33;102076.22;5030533;28;20494;-68
2023/01/29 04:19:45;;;;;;;28.30;24.75;;;0.50;94.10;;;-0.65;81.68;102067.44;5030220;28;20908;-69
2023/01/29 04:22:20;;;;;;;28.13;24.67;;;0.60;94.60;;;-0.66;82.11;102063.94;5030412;28;20399;-68
2023/01/29 04:24:50;;;;;;;29.60;23.58;;;0.60;94.20;;;-0.64;81.28;102058.63;5030617;28;20403;-69
2023/01/29 04:27:29;;;;;;;28.50;25.23;;;0.60;94.20;;;-0.65;82.31;102046.41;5030197;28;20506;-68
2023/01/29 04:30:22;;;;;;;27.73;24.75;;;0.50;94.10;;;-0.65;81.94;102041.13;5030333;28;20399;-68
2023/01/29 04:33:04;;;;;;;29.10;24.23;;;0.50;94.10;;;-0.65;82.65;102038.50;5029773;28;20939;-68
2023/01/29 04:36:00;;;;;;;28.20;25.03;;;0.60;94.20;;;-0.64;82.62;102030.53;5030104;28;20462;-68
2023/01/29 04:38:54;;;;;;;27.42;24.52;;;0.50;94.20;;;-0.61;81.19;102033.06;5029607;28;20411;-68
2023/01/29 04:41:31;;;;;;;28.80;24.65;;;0.60;94.10;;;-0.61;81.08;102022.53;5030040;28;20422;-69
2023/01/29 04:44:09;;;;;;;29.67;24.88;;;0.60;94.00;;;-0.59;81.40;102025.13;5029533;28;20411;-68
2023/01/29 04:46:50;;;;;;;26.48;23.48;;;0.60;94.00;;;-0.59;81.27;102012.84;5028371;28;20399;-68
2023/01/29 04:49:35;;;;;;;28.07;25.07;;;0.60;94.00;;;-0.57;81.57;102012.75;5027855;28;20490;-69
2023/01/29 04:52:17;;;;;;;27.80;24.85;;;0.60;93.90;;;-0.56;81.68;102014.47;5029826;28;20403;-68
2023/01/29 04:55:01;;;;;;;28.60;24.75;;;0.60;93.90;;;-0.56;80.66;102014.47;5029439;28;20415;-68
2023/01/29 04:57:40;;;;;;;27.67;24.77;;;0.60;93.80;;;-0.55;81.31;102009.16;5028971;28;20410;-68
2023/01/29 05:00:18;;;;;;;27.48;24.58;;;0.60;93.70;;;-0.57;81.17;102003.09;5029511;28;20454;-69
2023/01/29 05:02:48;;;;;;;28.08;25.00;;;0.60;93.80;;;-0.56;81.86;101999.56;5029372;28;20409;-68
2023/01/29 05:05:20;;;;;;;28.23;24.55;;;0.60;93.70;;;-0.54;81.33;101989.81;5029224;28;20407;-68
2023/01/29 05:07:50;;;;;;;28.00;24.60;;;0.60;93.60;;;-0.53;80.48;102004.69;5029004;28;21206;-68
2023/01/29 05:10:22;;;;;;;28.60;25.30;;;0.60;93.60;;;-0.53;81.31;101993.31;5029207;28;20745;-68
2023/01/29 05:12:58;;;;;;;28.98;25.95;;;0.60;93.60;;;-0.54;81.70;101992.44;5029413;28;20403;-68
2023/01/29 05:15:34;;;;;;;29.40;26.20;;;0.70;93.60;;;-0.54;80.48;101996.84;5029287;28;20403;-68
2023/01/29 05:18:07;;;;;;;29.73;26.45;;;0.60;93.60;;;-0.54;80.28;101992.44;5028647;28;20810;-69
2023/01/29 05:20:39;;;;;;;30.30;26.30;;;0.60;93.60;;;-0.55;80.50;102001.25;5028826;28;20418;-68
2023/01/29 05:23:16;;;;;;;30.42;26.50;;;0.60;93.60;;;-0.56;81.08;102004.81;5029029;28;20403;-68
2023/01/29 05:25:45;;;;;;;30.17;26.60;;;0.60;93.40;;;-0.56;80.23;102010.09;5028635;28;20415;-69
2023/01/29 05:28:15;;;;;;;31.80;28.05;;;0.60;93.40;;;-0.58;81.08;102001.38;5028922;28;20403;-68
2023/01/29 05:30:46;;;;;;;30.40;26.40;;;0.60;93.30;;;-0.59;81.19;101999.69;5028892;28;20486;-68
2023/01/29 05:33:17;;;;;;;31.45;27.40;;;0.60;93.30;;;-0.59;81.05;102004.94;5029062;28;20434;-70
2023/01/29 05:35:45;;;;;;;30.92;27.27;;;0.60;93.40;;;-0.58;81.35;102006.63;5028553;28;20407;-68
2023/01/29 05:38:16;;;;;;;32.45;27.95;;;0.60;93.40;;;-0.58;80.85;102006.63;5028677;28;20406;-68
2023/01/29 05:40:45;;;;;;;30.60;26.95;;;0.60;93.40;;;-0.57;80.06;102013.63;5028386;28;20419;-68
2023/01/29 05:43:17;;;;;;;31.20;26.90;;;0.60;93.20;;;-0.58;79.67;102011.91;5028558;28;20985;-68
2023/01/29 05:45:53;;;;;;;30.63;26.38;;;0.60;93.20;;;-0.57;80.31;102004.88;5028386;28;20414;-68
2023/01/29 05:48:22;;;;;;;34.53;27.92;;;0.60;93.30;;;-0.57;80.84;102013.63;5028754;28;20395;-68
2023/01/29 05:50:50;;;;;;;31.02;27.08;;;0.60;93.30;;;-0.55;79.88;102010.94;5028744;28;20403;-68
2023/01/29 05:53:20;;;;;;;31.20;26.77;;;0.60;93.10;;;-0.55;80.43;102022.28;5028533;28;20448;-68
2023/01/29 05:55:48;;;;;;;31.50;27.13;;;0.60;93.10;;;-0.51;80.64;102020.41;5028406;28;20402;-68
2023/01/29 05:58:18;;;;;;;32.38;27.17;;;0.60;93.10;;;-0.51;79.15;102015.16;5028218;28;20799;-68
2023/01/29 06:00:46;;;;;;;30.85;27.20;;;0.70;92.80;;;-0.50;79.59;102019.50;5028114;28;20969;-68
2023/01/29 06:03:14;;;;;;;32.13;27.67;;;0.70;92.80;;;-0.47;79.63;102034.31;5028575;28;20524;-68
2023/01/29 06:05:42;;;;;;;31.52;27.17;;;0.70;92.80;;;-0.47;80.11;102042.19;5027901;28;20410;-68
2023/01/29 06:08:10;;;;;;;32.47;27.87;;;0.70;92.90;;;-0.45;78.64;102028.09;5028271;28;20406;-68
2023/01/29 06:10:40;;;;;;;30.92;25.95;;;0.70;92.60;;;-0.44;78.73;102034.19;5028103;28;20915;-68
2023/01/29 06:13:08;;;;;;;32.03;27.52;;;0.70;92.60;;;-0.44;78.69;102039.44;5028122;28;20550;-68
2023/01/29 06:15:39;;;;;;;34.25;27.60;;;0.70;92.50;;;-0.45;78.79;102027.22;5027812;28;20441;-68
2023/01/29 06:18:07;;;;;;;32.15;27.80;;;0.70;92.60;;;-0.46;79.19;102030.75;5027886;28;20872;-68
2023/01/29 06:20:36;;;;;;;32.70;27.80;;;0.70;92.70;;;-0.44;80.13;102023.66;5027693;28;20806;-68
2023/01/29 06:23:04;;;;;;;31.85;26.85;;;0.70;92.70;;;-0.44;78.47;102028.91;5027539;28;20458;-68
2023/01/29 06:25:33;;;;;;;30.73;26.77;;;0.70;92.50;;;-0.43;78.81;102020.97;5027737;28;20407;-68
2023/01/29 06:28:02;;;;;;;30.77;26.58;;;0.70;92.50;;;-0.42;79.52;102021.84;5027979;28;20430;-68
2023/01/29 06:30:30;;;;;;;31.90;25.98;;;0.80;92.60;;;-0.41;78.80;102016.50;5027818;28;20930;-68
2023/01/29 06:33:00;;;;;;;32.78;27.92;;;0.80;92.60;;;-0.40;79.33;102010.34;5027887;28;20807;-68
2023/01/29 06:35:28;;;;;;;31.60;27.15;;;0.80;92.60;;;-0.41;78.86;102023.56;5027952;28;20501;-68
2023/01/29 06:37:57;;;;;;;31.33;27.05;;;0.80;92.60;;;-0.41;79.39;102027.03;5030776;28;20410;-68
2023/01/29 06:40:25;;;;;;;33.38;27.20;;;0.80;92.70;;;-0.39;80.18;102019.94;5031545;28;20899;-68
2023/01/29 06:42:53;;;;;;;33.58;27.63;;;0.80;92.70;;;-0.38;79.18;102028.69;5031644;28;21069;-68
2023/01/29 06:45:22;;;;;;;33.22;28.30;;;0.80;92.70;;;-0.39;79.90;102032.25;5031740;28;20426;-68
2023/01/29 06:47:51;;;;;;;32.40;27.08;;;0.80;92.50;;;-0.39;78.92;102032.25;5031509;28;20417;-68
2023/01/29 06:50:20;;;;;;;34.63;28.33;;;0.80;92.50;;;-0.41;79.72;102015.69;5031538;28;20765;-68
2023/01/29 06:52:48;;;;;;;34.35;28.35;;;0.70;92.40;;;-0.39;79.52;102019.09;5031262;28;20812;-68
2023/01/29 06:55:16;;;;;;;33.15;28.38;;;0.80;92.50;;;-0.39;79.45;102022.59;5031343;28;20402;-68
2023/01/29 06:57:44;;;;;;;33.08;28.23;;;0.80;92.60;;;-0.37;79.26;102043.56;5031478;28;20406;-68
2023/01/29 07:00:14;;;;;;;34.97;28.00;;;0.80;92.70;;;-0.38;78.50;102044.50;5031784;28;20460;-68
2023/01/29 07:02:44;;;;;;;36.72;29.65;;;0.80;92.50;;;-0.38;79.89;102029.56;5031796;28;20422;-68
2023/01/29 07:05:12;;;;;;;35.47;29.08;;;0.80;92.40;;;-0.37;78.89;102040.91;5031710;28;20930;-68
2023/01/29 07:07:40;;;;;;;33.80;27.88;;;0.80;92.30;;;-0.37;79.31;102064.59;5031544;28;20403;-68
2023/01/29 07:10:10;;;;;;;34.75;28.42;;;0.80;92.30;;;-0.37;78.76;102067.22;5031381;28;20963;-68
2023/01/29 07:12:38;;;;;;;36.10;29.58;;;0.80;92.50;;;-0.40;79.99;102069.97;5031557;28;20875;-68
2023/01/29 07:15:08;;;;;;;37.50;30.58;;;0.80;92.50;;;-0.41;80.04;102063.03;5031485;28;20417;-68
2023/01/29 07:17:36;;;;;;;36.38;30.05;;;0.80;92.60;;;-0.42;80.26;102051.66;5031267;28;20816;-68
2023/01/29 07:20:08;;;;;;;38.67;30.27;;;0.70;92.70;;;-0.42;79.09;102058.69;5031128;28;20914;-68
2023/01/29 07:22:36;;;;;;;37.83;30.35;;;0.70;92.70;;;-0.39;80.13;102061.19;5029816;28;20430;-68
2023/01/29 07:25:06;;;;;;;39.08;30.67;;;0.80;92.90;;;-0.41;79.27;102055.97;5031380;28;20411;-68
2023/01/29 07:27:34;;;;;;;39.28;31.05;;;0.80;92.90;;;-0.42;79.46;102049.00;5030779;28;20450;-68
2023/01/29 07:30:02;;;;;;;37.85;31.17;;;0.70;92.80;;;-0.38;80.28;102055.03;5030655;28;20415;-68
2023/01/29 07:32:30;;;;;;;38.47;30.57;;;0.80;92.80;;;-0.36;80.17;102037.38;5031311;28;20407;-68
2023/01/29 07:34:58;;;;;;;37.97;29.75;;;0.80;92.90;;;-0.37;79.59;102011.97;5031014;28;20414;-68
2023/01/29 07:37:27;;;;;;;40.60;30.50;;;0.80;92.70;;;-0.35;80.11;102008.41;5030855;28;20461;-68
2023/01/29 07:39:55;;;;;;;39.40;30.75;;;0.80;92.80;;;-0.32;79.54;102017.94;5030683;28;21129;-68
2023/01/29 07:42:23;;;;;;;38.00;30.02;;;0.80;92.60;;;-0.30;79.98;102013.44;5030592;28;20418;-68
2023/01/29 07:44:51;;;;;;;40.63;31.45;;;0.90;92.60;;;-0.29;78.88;102008.16;5031015;28;20418;-68
2023/01/29 07:47:19;;;;;;;39.30;31.02;;;0.90;92.60;;;-0.27;78.88;102013.34;5030356;28;20677;-69
2023/01/29 07:49:48;;;;;;;39.70;31.58;;;0.90;92.50;;;-0.27;79.71;102019.47;5030655;28;20407;-69
2023/01/29 07:52:16;;;;;;;41.42;31.35;;;0.90;92.50;;;-0.25;79.58;102011.50;5030501;28;20422;-68
2023/01/29 07:54:45;;;;;;;41.08;32.25;;;0.90;92.50;;;-0.23;79.53;102007.03;5030774;28;20429;-68
2023/01/29 07:57:13;;;;;;;41.55;32.42;;;0.90;92.60;;;-0.25;80.36;101987.81;5030327;28;20415;-68
2023/01/29 07:59:41;;;;;;;43.90;33.58;;;0.90;92.70;;;-0.24;79.72;101973.75;5030741;28;20541;-68
2023/01/29 08:02:10;;;;;;;45.22;34.03;;;0.90;93.10;;;-0.25;81.09;101974.69;5030692;28;20422;-68
2023/01/29 08:04:39;;;;;;;46.45;35.13;;;0.90;93.30;;;-0.24;80.89;101986.91;5030472;28;20407;-68
2023/01/29 08:07:08;;;;;;;44.70;34.25;;;0.90;93.50;;;-0.25;81.55;101999.22;5030191;28;20403;-68
2023/01/29 08:09:36;;;;;;;45.15;34.17;;;0.90;93.70;;;-0.23;81.62;101993.88;5030395;28;20438;-68
2023/01/29 08:12:06;;;;;;;47.07;35.20;;;1.00;93.80;;;-0.25;82.31;101998.34;5030174;28;20399;-68
2023/01/29 08:14:34;;;;;;;49.50;36.38;;;0.90;93.90;;;-0.24;81.44;102000.09;5030385;28;20410;-68
2023/01/29 08:17:02;;;;;;;47.80;36.10;;;0.90;93.90;;;-0.25;82.22;101993.09;5029700;28;20411;-68
2023/01/29 08:19:31;;;;;;;51.33;37.85;;;0.90;94.10;;;-0.27;82.92;101993.13;5030178;28;20419;-67
2023/01/29 08:21:59;;;;;;;55.08;40.03;;;0.90;94.20;;;-0.32;82.84;101996.88;5029555;28;20426;-68
2023/01/29 08:24:27;;;;;;;51.07;38.87;;;0.90;94.60;;;-0.34;82.54;101996.09;5030053;28;20411;-67
2023/01/29 08:27:16;;;;;;;54.25;39.70;;;0.80;94.80;;;-0.36;83.39;101992.66;5029617;28;20757;-68
2023/01/29 08:29:44;;;;;;;56.38;41.60;;;0.80;95.10;;;-0.33;83.89;101989.91;5029633;28;20899;-68
2023/01/29 08:32:12;;;;;;;55.65;39.90;;;0.80;95.40;;;-0.37;83.61;101998.81;5029520;28;20907;-68
2023/01/29 08:34:40;;;;;;;59.63;41.97;;;0.80;95.40;;;-0.42;84.40;101999.03;5029308;28;20454;-68
2023/01/29 08:37:08;;;;;;;56.17;41.83;;;0.70;95.60;;;-0.40;83.66;101998.94;5029862;28;20403;-67
2023/01/29 08:39:36;;;;;;;62.53;45.67;;;0.70;95.60;;;-0.42;84.13;101995.53;5030324;28;20426;-68
2023/01/29 08:42:04;;;;;;;59.28;42.00;;;0.70;95.60;;;-0.41;84.29;101989.38;5029807;28;20423;-68
2023/01/29 08:44:34;;;;;;;62.05;45.95;;;0.70;95.60;;;-0.42;83.74;101992.91;5028449;28;20415;-68
2023/01/29 08:47:02;;;;;;;63.08;46.33;;;0.80;95.40;;;-0.39;83.07;101992.78;5029434;28;20727;-68
2023/01/29 08:49:30;;;;;;;59.58;44.28;;;0.80;95.30;;;-0.36;84.04;101995.28;5029071;28;20906;-69
2023/01/29 08:51:58;;;;;;;57.63;42.25;;;0.80;95.30;;;-0.34;82.92;101989.03;5029779;28;20411;-65
2023/01/29 08:54:29;;;;;;;57.60;42.67;;;0.80;95.10;;;-0.33;83.65;101990.75;5026179;28;20887;-68
2023/01/29 08:56:58;;;;;;;55.60;41.72;;;0.80;95.10;;;-0.33;83.51;101980.22;5026291;28;20906;-69
2023/01/29 08:59:26;;;;;;;56.30;41.97;;;0.80;95.20;;;-0.30;83.39;101976.63;5027653;28;20419;-69
2023/01/29 09:01:55;;;;;;;67.18;48.70;;;0.90;95.20;;;-0.30;83.27;101973.97;5029475;28;20406;-69
2023/01/29 09:04:23;;;;;;;68.80;50.70;;;0.90;94.90;;;-0.30;82.48;101973.97;5028882;28;20882;-69
2023/01/29 09:06:52;;;;;;;67.15;48.53;;;0.90;94.90;;;-0.28;83.30;101978.28;5029028;28;20406;-68
2023/01/29 09:09:20;;;;;;;61.70;45.75;;;0.80;94.90;;;-0.24;83.57;101968.50;5029006;28;20505;-69
2023/01/29 09:11:48;;;;;;;65.55;47.08;;;0.90;94.80;;;-0.22;83.34;101962.25;5028639;28;20917;-68
2023/01/29 09:14:16;;;;;;;102.85;64.65;;;1.00;94.80;;;-0.19;82.63;101956.00;5029267;28;20423;-69
2023/01/29 09:16:44;;;;;;;110.18;67.63;;;1.00;94.70;;;-0.17;82.96;101943.66;5028885;28;20411;-69
2023/01/29 09:19:14;;;;;;;116.80;78.00;;;0.90;94.60;;;-0.18;81.65;101941.94;5028795;28;20416;-69
2023/01/29 09:21:43;;;;;;;98.38;66.00;;;1.00;94.40;;;-0.18;82.60;101939.28;5028909;28;20397;-69
2023/01/29 09:24:11;;;;;;;80.10;54.83;;;1.00;94.30;;;-0.18;82.24;101947.19;5028784;28;20434;-69
2023/01/29 09:26:40;;;;;;;84.43;59.17;;;1.00;94.40;;;-0.17;82.32;101935.75;5028866;28;20411;-69
2023/01/29 09:29:10;;;;;;;107.28;77.40;;;1.00;94.30;;;-0.15;82.80;101937.41;5028636;28;20881;-69
2023/01/29 09:31:38;;;;;;;65.85;50.45;;;1.00;94.40;;;-0.13;82.23;101939.94;5028913;28;20415;-68
2023/01/29 09:34:06;;;;;;;60.20;44.58;;;1.00;94.40;;;-0.10;82.54;101947.72;5028515;28;20391;-68
2023/01/29 09:36:36;;;;;;;69.00;52.72;;;1.00;94.30;;;-0.09;81.67;101941.53;5028027;28;21123;-69
2023/01/29 09:39:04;;;;;;;64.95;48.03;;;1.10;94.40;;;-0.08;82.55;101938.84;5028641;28;20403;-69
2023/01/29 09:41:48;;;;;;;64.90;50.03;;;1.10;94.50;;;-0.05;83.08;101932.59;5028566;28;20419;-69
2023/01/29 09:44:28;;;;;;;59.78;46.45;;;1.10;94.50;;;-0.01;82.72;101937.69;5028167;28;20465;-69
2023/01/29 09:46:59;;;;;;;56.00;42.55;;;1.10;94.50;;;0.01;82.41;101937.59;5028061;28;20415;-68
2023/01/29 09:49:36;;;;;;;53.47;40.20;;;1.20;94.50;;;0.04;82.16;101932.19;5028507;28;20422;-68
2023/01/29 09:52:14;;;;;;;61.42;45.47;;;1.20;94.50;;;0.07;82.89;101926.81;5029016;28;20403;-68
2023/01/29 09:54:57;;;;;;;56.90;43.90;;;1.20;94.60;;;0.10;81.66;101937.25;5027394;28;20415;-68
2023/01/29 09:57:34;;;;;;;99.10;65.68;;;1.20;94.40;;;0.11;82.86;101923.13;5023151;28;20925;-69
2023/01/29 10:00:02;;;;;;;77.28;55.83;;;1.30;94.40;;;0.14;82.93;101924.81;5027939;28;20407;-68
2023/01/29 10:03:09;;;;;;;57.47;43.90;;;1.30;94.50;;;0.16;82.13;101915.91;5028641;28;20403;-68
2023/01/29 10:05:59;;;;;;;48.67;38.67;;;1.30;94.50;;;0.20;81.71;101914.84;5028067;28;20407;-68
2023/01/29 10:08:56;;;;;;;57.10;43.35;;;1.40;94.30;;;0.22;81.93;101923.53;5028718;28;20403;-69
2023/01/29 10:11:42;;;;;;;49.33;37.92;;;1.40;94.40;;;0.24;82.57;101911.16;5028111;28;20410;-69
2023/01/29 10:14:22;;;;;;;52.33;40.43;;;1.40;94.20;;;0.26;82.28;101911.09;5028457;28;20406;-69
2023/01/29 10:17:27;;;;;;;49.20;38.33;;;1.40;94.20;;;0.28;82.47;101909.22;5027889;28;20395;-69
2023/01/29 10:20:24;;;;;;;50.75;37.60;;;1.40;94.30;;;0.29;81.79;101914.44;5028072;28;20406;-69
2023/01/29 10:23:18;;;;;;;49.72;38.00;;;1.50;94.20;;;0.31;81.37;101917.03;5027754;28;20411;-69
2023/01/29 10:25:49;;;;;;;50.35;38.92;;;1.50;94.10;;;0.33;81.43;101918.66;5026153;28;20411;-69
2023/01/29 10:28:23;;;;;;;48.88;37.92;;;1.50;94.10;;;0.33;82.01;101921.31;5027880;28;20411;-69
2023/01/29 10:30:59;;;;;;;61.15;43.92;;;1.50;94.10;;;0.35;82.46;101923.84;5028036;28;20403;-69
2023/01/29 10:33:37;;;;;;;53.28;41.05;;;1.50;94.10;;;0.33;81.79;101923.94;5028294;28;20482;-69
2023/01/29 10:36:35;;;;;;;56.30;44.35;;;1.50;94.10;;;0.35;81.43;101922.09;5027160;28;20494;-69
2023/01/29 10:39:03;;;;;;;61.85;49.92;;;1.50;94.10;;;0.35;81.51;101923.84;5027881;28;20407;-69
2023/01/29 10:41:52;;;;;;;54.10;40.88;;;1.50;94.00;;;0.35;81.70;101922.09;5027755;28;20414;-69
2023/01/29 10:44:38;;;;;;;51.90;39.45;;;1.50;94.00;;;0.36;82.19;101915.03;5027608;28;20563;-69
2023/01/29 10:47:58;;;;;;;52.25;40.08;;;1.50;94.00;;;0.37;81.01;101909.72;5027634;28;20450;-69
2023/01/29 10:50:47;;;;;;;54.08;41.47;;;1.50;94.00;;;0.38;81.28;101895.59;5008278;28;20409;-69
2023/01/29 10:53:37;;;;;;;51.92;40.17;;;1.60;94.10;;;0.40;81.17;101893.78;5007629;28;20885;-69